Time;durP1;ratioP1;P1;durP2;ratioP2;P2;SDS_P1;SDS_P2;PMS_P1;PMS_P2;Temp;Humidity;BMP_temperature;BMP_pressure;BME280_temperature;BME280_humidity;BME280_pressure;Samples;Min_cycle;Max_cycle;Signal;HPM_P1;HPM_P2
2022/01/09 00:01:51;;;;;;;2.92;2.13;;;;;;;;;;6205190;28;20046;-83
2022/01/09 00:04:53;;;;;;;2.45;2.10;;;;;;;;;;6221686;28;20516;-83
2022/01/09 00:07:54;;;;;;;3.55;2.17;;;;;;;;;;6204940;28;20506;-84
2022/01/09 00:10:56;;;;;;;4.35;2.95;;;;;;;;;;6203149;28;20046;-83
2022/01/09 00:13:57;;;;;;;7.28;3.72;;;;;;;;;;6244071;28;20039;-84
2022/01/09 00:16:59;;;;;;;3.83;2.95;;;;;;;;;;6211715;28;20231;-84
2022/01/09 00:20:04;;;;;;;4.10;2.78;;;;;;;;;;6215211;28;20049;-83
2022/01/09 00:23:05;;;;;;;3.80;2.50;;;;;;;;;;6229616;28;20107;-83
2022/01/09 00:26:08;;;;;;;5.03;3.25;;;;;;;;;;6203469;28;20048;-84
2022/01/09 00:29:10;;;;;;;3.97;2.40;;;;;;;;;;6187230;28;20042;-82
2022/01/09 00:32:11;;;;;;;3.78;2.47;;;;;;;;;;6218011;28;20135;-82
2022/01/09 00:35:14;;;;;;;3.60;2.53;;;;;;;;;;6234586;28;20049;-83
2022/01/09 00:38:16;;;;;;;5.22;3.20;;;;;;;;;;6222469;28;20097;-84
2022/01/09 00:41:17;;;;;;;6.10;2.92;;;;;;;;;;6202946;28;20046;-82
2022/01/09 00:44:19;;;;;;;4.88;2.50;;;;;;;;;;6222106;28;20065;-83
2022/01/09 00:47:21;;;;;;;5.40;2.90;;;;;;;;;;6237934;28;20048;-83
2022/01/09 00:50:23;;;;;;;4.63;3.08;;;;;;;;;;6243600;28;20038;-82
2022/01/09 00:53:24;;;;;;;5.03;2.80;;;;;;;;;;6224799;28;20128;-83
2022/01/09 00:56:26;;;;;;;3.05;2.58;;;;;;;;;;6224834;28;20092;-84
2022/01/09 00:59:27;;;;;;;3.72;2.33;;;;;;;;;;6277193;28;20052;-82
2022/01/09 01:02:29;;;;;;;2.63;2.08;;;;;;;;;;6217377;28;20102;-81
2022/01/09 01:05:31;;;;;;;2.60;1.77;;;;;;;;;;6242996;28;20077;-82
2022/01/09 01:08:33;;;;;;;3.25;2.20;;;;;;;;;;6243531;28;20055;-82
2022/01/09 01:11:35;;;;;;;4.78;2.60;;;;;;;;;;6232320;28;20172;-80
2022/01/09 01:14:37;;;;;;;3.05;2.30;;;;;;;;;;6239701;28;20351;-83
2022/01/09 01:17:39;;;;;;;2.90;2.42;;;;;;;;;;6205367;28;20061;-83
2022/01/09 01:20:41;;;;;;;3.08;2.30;;;;;;;;;;6199987;28;20115;-81
2022/01/09 01:23:43;;;;;;;4.20;2.80;;;;;;;;;;6200858;28;20078;-82
2022/01/09 01:26:45;;;;;;;3.55;2.42;;;;;;;;;;6217892;28;20056;-82
2022/01/09 01:29:46;;;;;;;4.00;2.90;;;;;;;;;;6217917;28;20037;-81
2022/01/09 01:32:48;;;;;;;4.25;2.80;;;;;;;;;;6217133;28;20196;-81
2022/01/09 01:35:50;;;;;;;3.55;2.55;;;;;;;;;;6216845;28;20042;-82
2022/01/09 01:38:52;;;;;;;5.18;3.20;;;;;;;;;;6201670;28;20072;-81
2022/01/09 01:41:53;;;;;;;5.80;3.40;;;;;;;;;;6233694;28;20141;-81
2022/01/09 01:44:55;;;;;;;4.90;3.50;;;;;;;;;;6219527;28;20083;-82
2022/01/09 01:48:05;;;;;;;7.18;3.53;;;;;;;;;;6223171;28;20152;-81
2022/01/09 01:51:07;;;;;;;5.03;3.45;;;;;;;;;;6242667;28;20136;-83
2022/01/09 01:54:11;;;;;;;6.78;3.63;;;;;;;;;;6242814;28;20432;-82
2022/01/09 01:57:13;;;;;;;3.53;2.75;;;;;;;;;;6218328;28;20045;-81
2022/01/09 02:00:17;;;;;;;7.45;4.00;;;;;;;;;;6218821;28;20048;-82
2022/01/09 02:03:19;;;;;;;5.25;3.50;;;;;;;;;;6218365;28;20054;-80
2022/01/09 02:06:22;;;;;;;6.85;4.20;;;;;;;;;;6218957;28;20049;-82
2022/01/09 02:09:24;;;;;;;7.43;3.80;;;;;;;;;;6219390;28;20052;-82
2022/01/09 02:12:26;;;;;;;14.10;5.28;;;;;;;;;;6227045;28;20048;-81
2022/01/09 02:15:36;;;;;;;6.63;4.00;;;;;;;;;;6221987;28;20402;-82
2022/01/09 02:18:38;;;;;;;6.20;3.53;;;;;;;;;;6219377;28;20110;-82
2022/01/09 02:21:47;;;;;;;9.70;4.50;;;;;;;;;;6216562;28;20079;-82
2022/01/09 02:24:49;;;;;;;11.07;3.92;;;;;;;;;;6218525;28;20046;-82
2022/01/09 02:27:51;;;;;;;8.82;4.35;;;;;;;;;;6184962;28;20109;-82
2022/01/09 02:30:53;;;;;;;4.00;2.60;;;;;;;;;;6216107;28;20045;-82
2022/01/09 02:33:54;;;;;;;10.60;5.00;;;;;;;;;;6234161;28;20124;-82
2022/01/09 02:36:56;;;;;;;9.52;4.55;;;;;;;;;;6223561;28;20049;-83
2022/01/09 02:39:58;;;;;;;11.13;4.35;;;;;;;;;;6238695;28;20045;-83
2022/01/09 02:43:00;;;;;;;24.65;7.90;;;;;;;;;;6235018;28;20492;-81
2022/01/09 02:46:17;;;;;;;9.48;4.03;;;;;;;;;;6234565;28;20045;-83
2022/01/09 02:49:19;;;;;;;14.05;4.88;;;;;;;;;;6239046;28;20105;-82
2022/01/09 02:55:29;;;;;;;4.55;2.83;;;;;;;;;;6228044;28;20045;-81
2022/01/09 02:58:32;;;;;;;6.72;3.47;;;;;;;;;;6240147;28;20172;-81
2022/01/09 03:01:33;;;;;;;21.25;6.53;;;;;;;;;;6202608;28;20057;-84
2022/01/09 03:04:35;;;;;;;5.60;2.90;;;;;;;;;;6200571;28;20052;-82
2022/01/09 03:07:38;;;;;;;5.35;3.17;;;;;;;;;;6228334;28;20120;-81
2022/01/09 03:10:40;;;;;;;4.47;2.83;;;;;;;;;;6224823;28;20045;-82
2022/01/09 03:13:41;;;;;;;13.07;4.93;;;;;;;;;;6258261;28;20124;-83
2022/01/09 03:16:43;;;;;;;12.35;4.90;;;;;;;;;;6216329;28;20050;-82
2022/01/09 03:19:44;;;;;;;7.35;3.33;;;;;;;;;;6238016;28;20052;-83
2022/01/09 03:22:47;;;;;;;10.50;4.05;;;;;;;;;;6205138;28;20065;-82
2022/01/09 03:25:48;;;;;;;6.90;3.38;;;;;;;;;;6239390;28;20037;-81
2022/01/09 03:28:50;;;;;;;3.20;2.17;;;;;;;;;;6247571;28;20069;-81
2022/01/09 03:31:51;;;;;;;3.95;2.30;;;;;;;;;;6231671;28;20044;-83
2022/01/09 03:34:53;;;;;;;3.38;2.40;;;;;;;;;;6221513;28;20200;-80
2022/01/09 03:37:55;;;;;;;2.40;1.67;;;;;;;;;;6205384;28;20042;-82
2022/01/09 03:40:57;;;;;;;2.80;1.95;;;;;;;;;;6221651;28;20324;-83
2022/01/09 03:43:58;;;;;;;3.08;1.90;;;;;;;;;;6221682;28;20069;-82
2022/01/09 03:47:00;;;;;;;3.83;1.90;;;;;;;;;;6250186;28;20453;-82
2022/01/09 03:50:07;;;;;;;2.25;1.23;;;;;;;;;;6245471;28;20054;-82
2022/01/09 03:53:12;;;;;;;1.98;1.50;;;;;;;;;;6246575;28;20041;-82
2022/01/09 03:56:13;;;;;;;1.98;1.30;;;;;;;;;;6225719;28;20042;-83
2022/01/09 03:59:16;;;;;;;1.83;1.33;;;;;;;;;;6233310;28;20106;-81
2022/01/09 04:02:17;;;;;;;1.02;1.00;;;;;;;;;;6226544;28;20046;-81
2022/01/09 04:05:19;;;;;;;1.42;1.08;;;;;;;;;;6238665;28;20037;-80
2022/01/09 04:08:20;;;;;;;1.52;1.23;;;;;;;;;;6222657;28;20042;-82
2022/01/09 04:11:26;;;;;;;1.17;1.02;;;;;;;;;;6222127;28;20244;-82
2022/01/09 04:14:28;;;;;;;5.72;1.40;;;;;;;;;;6222326;28;20508;-81
2022/01/09 04:20:44;;;;;;;1.20;1.10;;;;;;;;;;6237330;28;20042;-80
2022/01/09 04:23:45;;;;;;;3.47;1.27;;;;;;;;;;6221456;28;20053;-82
2022/01/09 04:26:47;;;;;;;1.08;1.00;;;;;;;;;;6221923;28;20125;-81
2022/01/09 04:29:49;;;;;;;1.83;1.20;;;;;;;;;;6203135;28;20038;-82
2022/01/09 04:32:50;;;;;;;0.93;0.77;;;;;;;;;;6220991;28;20439;-81
2022/01/09 04:35:52;;;;;;;0.50;0.50;;;;;;;;;;6203132;28;20071;-81
2022/01/09 04:38:55;;;;;;;0.63;0.50;;;;;;;;;;6219344;28;20038;-82
2022/01/09 04:41:57;;;;;;;0.63;0.50;;;;;;;;;;6218572;28;20075;-81
2022/01/09 04:44:58;;;;;;;0.73;0.40;;;;;;;;;;6220220;28;20192;-81
2022/01/09 04:48:04;;;;;;;0.30;0.30;;;;;;;;;;6242853;28;20105;-81
2022/01/09 04:51:09;;;;;;;0.20;0.20;;;;;;;;;;6226124;28;20050;-82
2022/01/09 04:54:11;;;;;;;0.28;0.20;;;;;;;;;;6241755;28;20112;-83
2022/01/09 04:57:13;;;;;;;0.20;0.13;;;;;;;;;;6220026;28;20168;-83
2022/01/09 05:00:14;;;;;;;0.30;0.30;;;;;;;;;;6237790;28;20179;-81
2022/01/09 05:03:18;;;;;;;0.20;0.20;;;;;;;;;;6202969;28;20075;-81
2022/01/09 05:06:21;;;;;;;0.10;0.10;;;;;;;;;;6220123;28;20049;-82
2022/01/09 05:09:23;;;;;;;0.10;0.10;;;;;;;;;;6219155;28;20069;-82
2022/01/09 05:12:24;;;;;;;0.10;0.10;;;;;;;;;;6203367;28;20391;-82
2022/01/09 05:15:26;;;;;;;0.10;0.10;;;;;;;;;;6219667;28;20414;-83
2022/01/09 05:18:27;;;;;;;0.20;0.20;;;;;;;;;;6220644;28;20048;-81
2022/01/09 05:21:29;;;;;;;0.10;0.10;;;;;;;;;;6202347;28;20538;-85
2022/01/09 05:24:31;;;;;;;0.22;0.10;;;;;;;;;;6219836;28;20057;-83
2022/01/09 05:27:34;;;;;;;0.20;0.20;;;;;;;;;;6228322;28;20570;-85
2022/01/09 05:30:36;;;;;;;0.20;0.20;;;;;;;;;;6228681;28;20136;-85
2022/01/09 05:33:37;;;;;;;0.10;0.10;;;;;;;;;;6247731;28;20053;-82
2022/01/09 05:36:39;;;;;;;0.20;0.20;;;;;;;;;;6239732;28;20414;-86
2022/01/09 05:39:41;;;;;;;1.33;1.27;;;;;;;;;;6257571;28;20526;-82
2022/01/09 05:42:42;;;;;;;0.50;0.50;;;;;;;;;;6240425;28;20461;-81
2022/01/09 05:45:44;;;;;;;0.75;0.40;;;;;;;;;;6242016;28;20069;-83
2022/01/09 05:48:45;;;;;;;0.30;0.30;;;;;;;;;;6239399;28;20073;-84
2022/01/09 05:51:47;;;;;;;0.30;0.30;;;;;;;;;;6243318;28;20572;-84
2022/01/09 05:54:49;;;;;;;0.25;0.20;;;;;;;;;;6236057;28;20060;-83
2022/01/09 05:57:50;;;;;;;0.20;0.20;;;;;;;;;;6219189;28;20062;-82
2022/01/09 06:00:52;;;;;;;0.30;0.30;;;;;;;;;;6250700;28;20524;-84
2022/01/09 06:03:54;;;;;;;1.95;0.20;;;;;;;;;;6217578;28;20045;-82
2022/01/09 06:06:55;;;;;;;0.57;0.40;;;;;;;;;;6233650;28;20413;-83
2022/01/09 06:09:57;;;;;;;0.63;0.30;;;;;;;;;;6183774;28;20106;-82
2022/01/09 06:13:07;;;;;;;0.45;0.22;;;;;;;;;;6252171;22;20298;-82
2022/01/09 06:16:09;;;;;;;0.57;0.30;;;;;;;;;;6273885;28;20041;-84
2022/01/09 06:19:11;;;;;;;0.30;0.30;;;;;;;;;;6267953;28;20057;-82
2022/01/09 06:22:17;;;;;;;0.10;0.10;;;;;;;;;;6290183;28;20511;-83
2022/01/09 06:25:19;;;;;;;0.55;0.13;;;;;;;;;;6234703;28;20041;-83
2022/01/09 06:28:21;;;;;;;1.35;0.20;;;;;;;;;;6254812;28;20045;-85
2022/01/09 06:31:22;;;;;;;0.80;0.20;;;;;;;;;;6255565;28;20045;-86
2022/01/09 06:34:24;;;;;;;0.52;0.20;;;;;;;;;;6276504;28;20155;-86
2022/01/09 06:37:26;;;;;;;0.15;0.15;;;;;;;;;;6278474;28;20052;-83
2022/01/09 06:40:27;;;;;;;0.85;0.20;;;;;;;;;;6277938;28;20501;-83
2022/01/09 06:43:29;;;;;;;0.20;0.20;;;;;;;;;;6266152;28;20104;-82
2022/01/09 06:46:31;;;;;;;0.88;0.55;;;;;;;;;;6274567;28;20042;-86
2022/01/09 06:49:34;;;;;;;0.60;0.20;;;;;;;;;;6242626;28;20097;-81
2022/01/09 06:52:37;;;;;;;;;;;;;;;;;;6258984;28;20525;-84
2022/01/09 06:55:39;;;;;;;2.90;1.27;;;;;;;;;;6248023;28;20079;-82
2022/01/09 06:58:41;;;;;;;4.63;0.80;;;;;;;;;;6279829;28;20112;-85
2022/01/09 07:01:43;;;;;;;1.98;1.13;;;;;;;;;;6262957;28;20518;-83
2022/01/09 07:04:44;;;;;;;31.83;9.95;;;;;;;;;;6263560;28;20048;-84
2022/01/09 07:07:46;;;;;;;17.42;5.78;;;;;;;;;;6269561;28;20096;-84
2022/01/09 07:10:48;;;;;;;21.48;6.20;;;;;;;;;;6275098;28;20041;-82
2022/01/09 07:13:52;;;;;;;260.65;74.32;;;;;;;;;;6286711;28;20061;-83
2022/01/09 07:16:54;;;;;;;12.75;2.97;;;;;;;;;;6265778;28;20163;-83
2022/01/09 07:19:56;;;;;;;10.57;3.42;;;;;;;;;;6253902;28;20093;-82
2022/01/09 07:22:57;;;;;;;5.57;2.10;;;;;;;;;;6269335;28;20059;-83
2022/01/09 07:25:59;;;;;;;9.68;3.28;;;;;;;;;;6260877;28;20040;-82
2022/01/09 07:29:00;;;;;;;17.38;6.05;;;;;;;;;;6268583;28;20118;-82
2022/01/09 07:32:02;;;;;;;5.63;2.65;;;;;;;;;;6267220;28;20109;-81
2022/01/09 07:35:04;;;;;;;8.30;2.72;;;;;;;;;;6285626;28;20479;-83
2022/01/09 07:38:06;;;;;;;13.52;3.25;;;;;;;;;;6252122;28;20171;-82
2022/01/09 07:41:12;;;;;;;11.45;3.85;;;;;;;;;;6265722;28;20204;-81
2022/01/09 07:44:14;;;;;;;10.40;3.15;;;;;;;;;;6270427;28;20067;-83
2022/01/09 07:47:15;;;;;;;14.65;5.22;;;;;;;;;;6267346;28;20051;-83
2022/01/09 07:50:17;;;;;;;6.90;2.80;;;;;;;;;;6285761;28;20528;-81
2022/01/09 07:53:23;;;;;;;11.55;2.83;;;;;;;;;;6275172;28;20061;-80
2022/01/09 07:56:25;;;;;;;9.48;2.60;;;;;;;;;;6273840;28;20045;-82
2022/01/09 07:59:28;;;;;;;9.30;2.92;;;;;;;;;;6272681;28;20094;-83
2022/01/09 08:02:32;;;;;;;7.22;2.53;;;;;;;;;;6251272;28;20050;-82
2022/01/09 08:05:34;;;;;;;18.27;4.40;;;;;;;;;;6263695;28;20049;-81
2022/01/09 08:08:37;;;;;;;12.77;3.78;;;;;;;;;;6249518;28;20051;-82
2022/01/09 08:11:39;;;;;;;6.32;2.58;;;;;;;;;;6271605;28;20071;-83
2022/01/09 08:14:41;;;;;;;9.35;2.78;;;;;;;;;;6270402;28;20102;-85
2022/01/09 08:17:45;;;;;;;11.93;3.00;;;;;;;;;;6268974;28;20051;-84
2022/01/09 08:20:47;;;;;;;9.25;2.90;;;;;;;;;;6268708;28;20479;-84
2022/01/09 08:23:49;;;;;;;6.32;2.65;;;;;;;;;;6270088;28;20087;-85
2022/01/09 08:26:51;;;;;;;11.43;5.03;;;;;;;;;;6261543;28;20136;-84
2022/01/09 08:29:53;;;;;;;7.47;3.25;;;;;;;;;;6268771;28;20073;-81
2022/01/09 08:32:54;;;;;;;10.45;3.67;;;;;;;;;;6268662;28;20124;-84
2022/01/09 08:35:56;;;;;;;13.02;3.15;;;;;;;;;;6269661;28;20043;-84
2022/01/09 08:38:58;;;;;;;6.63;2.30;;;;;;;;;;6251976;28;20049;-84
2022/01/09 08:41:59;;;;;;;10.20;3.67;;;;;;;;;;6269695;28;20110;-84
2022/01/09 08:45:01;;;;;;;9.18;3.13;;;;;;;;;;6268512;28;20091;-83
2022/01/09 08:48:03;;;;;;;8.55;3.58;;;;;;;;;;6262785;28;20044;-82
2022/01/09 08:51:06;;;;;;;9.80;2.90;;;;;;;;;;6268799;28;20060;-83
2022/01/09 08:54:08;;;;;;;8.52;2.95;;;;;;;;;;6271858;28;20199;-84
2022/01/09 08:57:09;;;;;;;12.27;3.10;;;;;;;;;;6271169;28;20124;-84
2022/01/09 09:00:11;;;;;;;8.18;2.85;;;;;;;;;;6271144;28;20045;-83
2022/01/09 09:03:13;;;;;;;11.35;3.13;;;;;;;;;;6227517;28;20119;-83
2022/01/09 09:06:16;;;;;;;12.57;3.53;;;;;;;;;;6246928;28;20041;-83
2022/01/09 09:09:17;;;;;;;8.88;3.65;;;;;;;;;;6270046;28;20056;-83
2022/01/09 09:12:20;;;;;;;11.32;3.90;;;;;;;;;;6260136;28;20072;-84
2022/01/09 09:15:22;;;;;;;6.57;3.67;;;;;;;;;;6266664;28;20067;-83
2022/01/09 09:18:26;;;;;;;11.57;4.05;;;;;;;;;;6285906;28;20044;-84
2022/01/09 09:21:28;;;;;;;10.82;3.38;;;;;;;;;;6285084;28;20168;-84
2022/01/09 09:24:30;;;;;;;12.73;3.90;;;;;;;;;;6270884;28;20075;-84
2022/01/09 09:27:32;;;;;;;7.40;3.08;;;;;;;;;;6269466;28;20464;-84
2022/01/09 09:30:34;;;;;;;14.82;3.83;;;;;;;;;;6262188;28;20128;-83
2022/01/09 09:33:35;;;;;;;15.68;3.50;;;;;;;;;;6271122;28;20051;-83
2022/01/09 09:36:37;;;;;;;6.85;3.20;;;;;;;;;;6278426;28;20055;-82
2022/01/09 09:39:39;;;;;;;7.88;3.38;;;;;;;;;;6265727;28;20073;-84
2022/01/09 09:42:41;;;;;;;9.75;4.07;;;;;;;;;;6276355;28;20049;-84
2022/01/09 09:45:43;;;;;;;12.50;3.72;;;;;;;;;;6260839;28;20048;-84
2022/01/09 09:48:45;;;;;;;10.15;3.30;;;;;;;;;;6265853;28;20051;-84
2022/01/09 09:51:47;;;;;;;6.65;3.50;;;;;;;;;;6282740;28;20118;-84
2022/01/09 09:54:50;;;;;;;6.13;3.22;;;;;;;;;;6284559;28;20108;-84
2022/01/09 09:57:52;;;;;;;;;;;;;;;;;;6271659;28;20128;-83
2022/01/09 10:00:55;;;;;;;10.45;3.20;;;;;;;;;;6267080;28;20031;-83
2022/01/09 10:03:59;;;;;;;4.95;2.72;;;;;;;;;;6283569;28;20103;-80
2022/01/09 10:07:01;;;;;;;8.52;2.97;;;;;;;;;;6269149;28;20762;-82
2022/01/09 10:10:09;;;;;;;4.80;2.70;;;;;;;;;;6281607;28;20104;-81
2022/01/09 10:13:13;;;;;;;5.07;2.70;;;;;;;;;;6268261;28;20045;-81
2022/01/09 10:16:15;;;;;;;8.07;3.70;;;;;;;;;;6268697;28;20124;-82
2022/01/09 10:19:17;;;;;;;8.00;3.08;;;;;;;;;;6282803;28;20513;-81
2022/01/09 10:22:22;;;;;;;8.45;3.15;;;;;;;;;;6264080;28;20063;-81
2022/01/09 10:25:32;;;;;;;7.13;3.47;;;;;;;;;;6261797;28;20665;-82
2022/01/09 10:28:38;;;;;;;7.40;3.10;;;;;;;;;;6265315;28;20065;-81
2022/01/09 10:31:50;;;;;;;6.72;3.13;;;;;;;;;;6278936;28;20132;-82
2022/01/09 10:35:07;;;;;;;6.88;3.10;;;;;;;;;;6281728;28;20044;-86
2022/01/09 10:38:13;;;;;;;10.30;3.30;;;;;;;;;;6263945;28;20045;-81
2022/01/09 10:41:15;;;;;;;8.93;3.25;;;;;;;;;;6278528;28;20052;-83
2022/01/09 10:44:19;;;;;;;3.40;2.05;;;;;;;;;;6266133;28;20179;-81
2022/01/09 10:47:21;;;;;;;5.22;2.67;;;;;;;;;;6273297;28;20132;-84
2022/01/09 10:50:25;;;;;;;9.15;2.80;;;;;;;;;;6242329;28;20056;-81
2022/01/09 10:53:30;;;;;;;5.95;2.50;;;;;;;;;;6256225;28;20128;-83
2022/01/09 10:56:32;;;;;;;4.28;2.20;;;;;;;;;;6264739;28;20135;-83
2022/01/09 10:59:33;;;;;;;3.90;2.42;;;;;;;;;;6272420;28;20052;-84
2022/01/09 11:02:35;;;;;;;7.32;2.97;;;;;;;;;;6261807;28;20122;-84
2022/01/09 11:05:38;;;;;;;19.45;7.00;;;;;;;;;;6264737;28;20048;-82
2022/01/09 11:08:40;;;;;;;7.05;2.88;;;;;;;;;;6268946;28;20076;-83
2022/01/09 11:11:44;;;;;;;6.70;2.70;;;;;;;;;;6267903;28;20047;-83
2022/01/09 11:14:47;;;;;;;5.38;2.42;;;;;;;;;;6270601;28;20061;-83
2022/01/09 11:17:50;;;;;;;5.22;2.50;;;;;;;;;;6267925;28;20084;-84
2022/01/09 11:20:52;;;;;;;7.18;2.75;;;;;;;;;;6268728;28;20099;-83
2022/01/09 11:24:11;;;;;;;5.75;2.15;;;;;;;;;;6276341;28;20090;-82
2022/01/09 11:27:16;;;;;;;4.63;1.98;;;;;;;;;;6270103;28;20868;-84
2022/01/09 11:30:33;;;;;;;4.45;2.10;;;;;;;;;;6283867;28;20075;-81
2022/01/09 11:34:17;;;;;;;8.57;2.10;;;;;;;;;;6269728;28;20123;-82
2022/01/09 11:37:45;;;;;;;5.88;2.20;;;;;;;;;;6269915;28;20631;-83
2022/01/09 11:40:47;;;;;;;3.75;2.10;;;;;;;;;;6256908;28;20053;-82
2022/01/09 11:44:04;;;;;;;5.65;2.17;;;;;;;;;;6260865;28;20131;-83
2022/01/09 11:47:07;;;;;;;7.15;2.15;;;;;;;;;;6281988;28;20064;-81
2022/01/09 11:50:10;;;;;;;8.85;2.10;;;;;;;;;;6267734;28;20118;-83
2022/01/09 11:53:11;;;;;;;4.15;2.17;;;;;;;;;;6265869;28;20056;-82
2022/01/09 11:56:13;;;;;;;4.32;2.15;;;;;;;;;;6260807;28;20067;-84
2022/01/09 11:59:37;;;;;;;2.60;1.80;;;;;;;;;;6267915;28;20192;-84
2022/01/09 12:02:39;;;;;;;5.28;2.20;;;;;;;;;;6264196;28;20045;-84
2022/01/09 12:06:08;;;;;;;7.40;2.35;;;;;;;;;;6266086;28;20045;-84
2022/01/09 12:09:10;;;;;;;5.22;2.20;;;;;;;;;;6249159;28;20045;-82
2022/01/09 12:12:13;;;;;;;4.50;2.40;;;;;;;;;;6262164;28;20073;-84
2022/01/09 12:15:36;;;;;;;8.55;1.80;;;;;;;;;;6263977;28;20413;-83
2022/01/09 12:18:45;;;;;;;4.38;2.20;;;;;;;;;;6267711;28;20257;-83
2022/01/09 12:21:49;;;;;;;9.18;2.40;;;;;;;;;;6266580;28;20108;-83
2022/01/09 12:24:51;;;;;;;4.93;1.98;;;;;;;;;;6268841;28;20179;-85
2022/01/09 12:27:54;;;;;;;9.95;2.45;;;;;;;;;;6266647;28;20033;-83
2022/01/09 12:31:01;;;;;;;4.75;1.80;;;;;;;;;;6264193;28;20044;-83
2022/01/09 12:34:11;;;;;;;7.43;2.33;;;;;;;;;;6283388;28;20134;-82
2022/01/09 12:37:14;;;;;;;7.07;2.10;;;;;;;;;;6280796;28;20073;-83
2022/01/09 12:40:17;;;;;;;5.95;2.00;;;;;;;;;;6266577;28;20045;-83
2022/01/09 12:43:22;;;;;;;4.57;1.80;;;;;;;;;;6266758;28;20175;-82
2022/01/09 12:46:24;;;;;;;5.25;2.35;;;;;;;;;;6265517;28;20139;-83
2022/01/09 12:49:27;;;;;;;10.23;2.50;;;;;;;;;;6266721;28;20176;-85
2022/01/09 12:52:28;;;;;;;4.65;2.10;;;;;;;;;;6265305;28;20164;-84
2022/01/09 12:55:36;;;;;;;11.15;2.55;;;;;;;;;;6267124;28;20049;-81
2022/01/09 12:58:45;;;;;;;8.50;3.08;;;;;;;;;;6266419;28;20712;-81
2022/01/09 13:01:48;;;;;;;7.53;2.30;;;;;;;;;;6272842;28;20052;-83
2022/01/09 13:04:49;;;;;;;8.93;2.10;;;;;;;;;;6240538;28;20148;-83
2022/01/09 13:07:58;;;;;;;4.78;1.85;;;;;;;;;;6242762;28;20037;-83
2022/01/09 13:11:06;;;;;;;8.60;2.22;;;;;;;;;;6272922;28;20068;-82
2022/01/09 13:14:08;;;;;;;5.78;2.53;;;;;;;;;;6266449;28;20052;-82
2022/01/09 13:17:09;;;;;;;9.45;2.65;;;;;;;;;;6280934;28;20126;-82
2022/01/09 13:20:32;;;;;;;6.07;2.25;;;;;;;;;;6280215;28;20053;-83
2022/01/09 13:23:34;;;;;;;6.78;2.47;;;;;;;;;;6281078;28;20055;-83
2022/01/09 13:26:53;;;;;;;4.40;2.22;;;;;;;;;;6267119;28;20047;-82
2022/01/09 13:29:58;;;;;;;;;;;;;;;;;;6266324;28;20064;-83
2022/01/09 13:33:02;;;;;;;3.80;2.00;;;;;;;;;;6264462;28;20038;-82
2022/01/09 13:36:03;;;;;;;;;;;;;;;;;;6267420;28;20635;-82
2022/01/09 13:39:09;;;;;;;7.30;2.17;;;;;;;;;;6263950;28;19943;-82
2022/01/09 13:42:13;;;;;;;4.95;2.38;;;;;;;;;;6266027;28;20044;-83
2022/01/09 13:45:20;;;;;;;5.75;2.92;;;;;;;;;;6280697;28;20060;-81
2022/01/09 13:48:22;;;;;;;7.80;3.60;;;;;;;;;;6265877;28;20837;-82
2022/01/09 13:51:49;;;;;;;7.80;2.55;;;;;;;;;;6265743;28;20045;-83
2022/01/09 13:55:00;;;;;;;6.70;2.78;;;;;;;;;;6265612;28;20065;-82
2022/01/09 13:58:07;;;;;;;6.30;2.72;;;;;;;;;;6279832;28;20132;-82
2022/01/09 14:01:08;;;;;;;8.27;2.75;;;;;;;;;;6265096;28;20068;-83
2022/01/09 14:04:12;;;;;;;7.35;2.70;;;;;;;;;;6281395;28;20040;-81
2022/01/09 14:07:16;;;;;;;9.40;2.63;;;;;;;;;;6266632;28;20106;-83
2022/01/09 14:10:20;;;;;;;7.72;2.65;;;;;;;;;;6264423;28;20124;-83
2022/01/09 14:13:25;;;;;;;9.32;3.00;;;;;;;;;;6263427;28;20033;-83
2022/01/09 14:16:35;;;;;;;7.63;2.88;;;;;;;;;;6264970;28;20151;-82
2022/01/09 14:19:44;;;;;;;3.92;2.22;;;;;;;;;;6264532;28;20052;-82
2022/01/09 14:22:50;;;;;;;3.63;2.20;;;;;;;;;;6263888;28;20041;-83
2022/01/09 14:25:52;;;;;;;8.50;2.75;;;;;;;;;;6279275;28;20132;-83
2022/01/09 14:28:54;;;;;;;9.57;3.05;;;;;;;;;;6248087;28;20120;-82
2022/01/09 14:31:55;;;;;;;7.28;2.63;;;;;;;;;;6251847;28;20124;-84
2022/01/09 14:34:57;;;;;;;6.22;2.53;;;;;;;;;;6236950;28;20047;-83
2022/01/09 14:38:00;;;;;;;7.60;3.00;;;;;;;;;;6260205;28;20510;-82
2022/01/09 14:41:04;;;;;;;3.17;2.35;;;;;;;;;;6277551;28;20091;-82
2022/01/09 14:44:07;;;;;;;6.53;3.28;;;;;;;;;;6266557;28;20666;-83
2022/01/09 14:47:09;;;;;;;10.88;3.42;;;;;;;;;;6267994;28;20060;-82
2022/01/09 14:50:11;;;;;;;10.80;3.30;;;;;;;;;;6259185;28;20111;-82
2022/01/09 14:53:13;;;;;;;7.93;3.50;;;;;;;;;;6264897;28;20128;-82
2022/01/09 14:56:15;;;;;;;10.35;3.63;;;;;;;;;;6282798;28;20069;-82
2022/01/09 14:59:20;;;;;;;8.10;3.42;;;;;;;;;;6270104;28;20045;-80
2022/01/09 15:02:21;;;;;;;6.07;2.55;;;;;;;;;;6277822;28;20072;-82
2022/01/09 15:05:23;;;;;;;10.57;3.70;;;;;;;;;;6274095;28;20116;-82
2022/01/09 15:08:25;;;;;;;7.40;2.80;;;;;;;;;;6273718;28;20142;-82
2022/01/09 15:11:27;;;;;;;12.40;4.65;;;;;;;;;;6273000;28;20052;-82
2022/01/09 15:14:28;;;;;;;9.70;4.18;;;;;;;;;;6272727;28;20121;-82
2022/01/09 15:17:30;;;;;;;7.82;2.70;;;;;;;;;;6271026;28;20041;-82
2022/01/09 15:20:33;;;;;;;7.15;3.03;;;;;;;;;;6270307;28;20051;-82
2022/01/09 15:23:35;;;;;;;9.67;2.87;;;;;;;;;;6286387;28;20080;-83
2022/01/09 15:26:37;;;;;;;12.38;3.35;;;;;;;;;;6270802;28;20073;-82
2022/01/09 15:29:39;;;;;;;7.53;3.60;;;;;;;;;;6287549;28;20048;-84
2022/01/09 15:32:40;;;;;;;6.97;3.53;;;;;;;;;;6272238;28;20069;-82
2022/01/09 15:35:47;;;;;;;9.02;3.97;;;;;;;;;;6271784;28;20048;-83
2022/01/09 15:38:49;;;;;;;9.95;4.13;;;;;;;;;;6267604;28;20052;-83
2022/01/09 15:41:51;;;;;;;12.30;4.63;;;;;;;;;;6270254;28;20041;-83
2022/01/09 15:44:53;;;;;;;16.92;6.15;;;;;;;;;;6269143;28;20051;-83
2022/01/09 15:47:54;;;;;;;15.18;7.10;;;;;;;;;;6272123;28;20616;-82
2022/01/09 15:50:56;;;;;;;13.75;5.80;;;;;;;;;;6284803;28;20067;-81
2022/01/09 15:53:58;;;;;;;10.38;4.93;;;;;;;;;;6271407;28;20075;-81
2022/01/09 15:57:00;;;;;;;7.85;3.55;;;;;;;;;;6269376;28;20121;-83
2022/01/09 16:00:03;;;;;;;8.50;4.03;;;;;;;;;;6266626;28;20087;-82
2022/01/09 16:03:13;;;;;;;9.00;3.40;;;;;;;;;;6279892;28;20572;-83
2022/01/09 16:06:15;;;;;;;10.38;3.42;;;;;;;;;;6252281;28;20041;-81
2022/01/09 16:09:17;;;;;;;11.30;3.95;;;;;;;;;;6268887;28;20144;-81
2022/01/09 16:12:18;;;;;;;14.82;4.63;;;;;;;;;;6269619;28;20041;-82
2022/01/09 16:15:20;;;;;;;9.38;4.75;;;;;;;;;;6266871;28;20135;-83
2022/01/09 16:18:22;;;;;;;10.15;4.57;;;;;;;;;;6267569;28;20036;-80
2022/01/09 16:21:24;;;;;;;16.85;5.10;;;;;;;;;;6278910;28;20072;-82
2022/01/09 16:24:25;;;;;;;10.25;4.90;;;;;;;;;;6269633;28;20524;-81
2022/01/09 16:27:27;;;;;;;8.95;3.83;;;;;;;;;;6280321;28;20041;-83
2022/01/09 16:30:29;;;;;;;13.68;5.00;;;;;;;;;;6275292;28;20147;-80
2022/01/09 16:33:35;;;;;;;14.65;4.55;;;;;;;;;;6269486;28;20033;-81
2022/01/09 16:36:37;;;;;;;12.88;4.45;;;;;;;;;;6269825;28;20051;-83
2022/01/09 16:39:38;;;;;;;14.80;4.43;;;;;;;;;;6268604;28;20474;-84
2022/01/09 16:42:40;;;;;;;9.63;3.70;;;;;;;;;;6269755;28;20047;-82
2022/01/09 16:45:41;;;;;;;6.20;4.07;;;;;;;;;;6271048;28;20102;-83
2022/01/09 16:48:44;;;;;;;9.45;4.63;;;;;;;;;;6273663;28;20049;-83
2022/01/09 16:51:46;;;;;;;8.98;3.78;;;;;;;;;;6265017;28;20047;-83
2022/01/09 16:54:48;;;;;;;9.43;3.97;;;;;;;;;;6281967;28;20147;-82
2022/01/09 16:57:49;;;;;;;13.73;5.18;;;;;;;;;;6268064;28;20127;-83
2022/01/09 17:00:51;;;;;;;14.05;5.57;;;;;;;;;;6266256;28;20045;-83
2022/01/09 17:03:53;;;;;;;40.63;24.52;;;;;;;;;;6275108;28;20072;-82
2022/01/09 17:06:55;;;;;;;11.95;4.18;;;;;;;;;;6244456;28;20064;-83
2022/01/09 17:09:59;;;;;;;12.27;3.92;;;;;;;;;;6242756;28;20037;-83
2022/01/09 17:13:00;;;;;;;5.97;3.05;;;;;;;;;;6268225;28;20478;-83
2022/01/09 17:16:03;;;;;;;4.75;2.88;;;;;;;;;;6266141;28;20128;-83
2022/01/09 17:19:05;;;;;;;8.38;2.88;;;;;;;;;;6267583;28;20045;-83
2022/01/09 17:22:06;;;;;;;4.85;2.85;;;;;;;;;;6265404;28;20037;-84
2022/01/09 17:25:08;;;;;;;9.52;3.17;;;;;;;;;;6264193;28;20037;-83
2022/01/09 17:28:10;;;;;;;7.97;3.17;;;;;;;;;;6266567;28;20099;-81
2022/01/09 17:31:12;;;;;;;11.15;4.03;;;;;;;;;;6266216;28;20131;-83
2022/01/09 17:34:13;;;;;;;14.57;5.53;;;;;;;;;;6265363;28;20059;-81
2022/01/09 17:37:17;;;;;;;12.77;5.63;;;;;;;;;;6268947;28;20118;-84
2022/01/09 17:40:18;;;;;;;;;;;;;;;;;;6248458;28;20048;-82
2022/01/09 17:43:20;;;;;;;23.88;10.50;;;;;;;;;;6267287;28;20393;-83
2022/01/09 17:46:23;;;;;;;17.88;7.70;;;;;;;;;;6280008;28;20041;-84
2022/01/09 17:49:26;;;;;;;10.80;5.78;;;;;;;;;;6267228;28;20249;-83
2022/01/09 17:52:28;;;;;;;12.10;4.90;;;;;;;;;;6248352;28;20111;-85
2022/01/09 17:55:29;;;;;;;20.50;9.88;;;;;;;;;;6265771;28;20071;-81
2022/01/09 17:58:31;;;;;;;29.00;12.07;;;;;;;;;;6265926;28;20164;-83
2022/01/09 18:01:33;;;;;;;12.85;5.82;;;;;;;;;;6239454;28;20053;-83
2022/01/09 18:04:35;;;;;;;9.30;5.07;;;;;;;;;;6242994;28;20125;-83
2022/01/09 18:07:36;;;;;;;12.73;5.78;;;;;;;;;;6241116;28;20053;-82
2022/01/09 18:10:40;;;;;;;8.85;4.47;;;;;;;;;;6259208;28;20117;-81
2022/01/09 18:13:41;;;;;;;;;;;;;;;;;;6262954;28;20053;-87
2022/01/09 18:16:43;;;;;;;10.70;5.03;;;;;;;;;;6270129;28;20510;-83
2022/01/09 18:19:45;;;;;;;11.25;5.22;;;;;;;;;;6267246;28;20089;-82
2022/01/09 18:22:46;;;;;;;10.35;4.97;;;;;;;;;;6267606;28;20118;-83